Flight Track Log - Related Links

Times and Time Zones

All times are in EDT time to prevent confusion due to time zone crossing. See the DAL1981 flight status page for this flight to view local times or setup timezone preferences in your user account.

Time Position Orientation Groundspeed Altitude Reporting Facility
EDT Latitude Longitude Course Direction KTS MPH feet Rate Location/Type
Thu 03:55:39 PM 38.7500 -121.5667 78° East 178 205 1,700  Level Northern Cal TRACON
Thu 03:56:39 PM 38.7500 -121.4833 90° East 264 304 3,200 2,350 Climbing Northern Cal TRACON
Thu 03:57:00 PM 38.4993 -121.2383 80° East  Level FlightAware Approximate
Thu 03:57:39 PM 38.7500 -121.3833 90° East 279 321 6,400  Level Northern Cal TRACON
Thu 03:58:00 PM 38.5383 -121.0755 76° East  Level FlightAware Approximate
Thu 03:59:00 PM 38.5681 -120.9090 78° East  Level FlightAware Approximate
Thu 04:00:00 PM 38.5959 -120.7418 78° East  Level FlightAware Approximate
Thu 04:00:10 PM 38.7450 -121.1222 91° East 330 380 11,000  Level Oakland Center
Thu 04:01:11 PM 38.7419 -120.9822 92° East 371 427 13,000 1,854 Climbing Oakland Center
Thu 04:02:13 PM 38.7378 -120.8381 92° East 388 447 14,800 1,756 Climbing Oakland Center
Thu 04:03:14 PM 38.7342 -120.6853 92° East 408 470 16,600 1,756 Climbing Oakland Center
Thu 04:04:16 PM 38.7294 -120.5258 92° East 435 501 18,400 1,707 Climbing Oakland Center
Thu 04:05:17 PM 38.7239 -120.3628 92° East 455 524 20,100 1,512 Climbing Oakland Center
Thu 04:06:19 PM 38.7556 -120.2094 75° East 456 525 21,500 1,463 Climbing Oakland Center
Thu 04:07:20 PM 38.8506 -120.1000 42° Northeast 457 526 23,100 1,463 Climbing Oakland Center
Thu 04:08:22 PM 38.9578 -119.9731 43° Northeast 464 534 24,500 1,220 Climbing Oakland Center
Thu 04:09:23 PM 39.0553 -119.8589 42° Northeast 471 542 25,600 1,024 Climbing Oakland Center
Thu 04:10:25 PM 39.1556 -119.7419 42° Northeast 483 556 26,600 927 Climbing Oakland Center
Thu 04:11:26 PM 39.2583 -119.6217 42° Northeast 494 568 27,500 927 Climbing Oakland Center
Thu 04:12:28 PM 39.3603 -119.4997 43° Northeast 497 572 28,500 1,073 Climbing Oakland Center
Thu 04:13:29 PM 39.4642 -119.3761 43° Northeast 506 582 29,700 1,082 Climbing Oakland Center
Thu 04:14:30 PM 39.5667 -119.2547 42° Northeast 497 572 30,700 927 Climbing Oakland Center
Thu 04:15:32 PM 39.6686 -119.1306 43° Northeast 497 572 31,600 976 Climbing Oakland Center
Thu 04:16:33 PM 39.7711 -119.0092 42° Northeast 495 570 32,700 934 Climbing Oakland Center
Thu 04:17:34 PM 39.8925 -118.8608 43° Northeast 494 568 33,500 634 Climbing Oakland Center
Thu 04:18:36 PM 39.9936 -118.7369 43° Northeast 495 570 34,000 537 Climbing Oakland Center
Thu 04:19:37 PM 40.0914 -118.6064 46° Northeast 500 575 34,600 488 Climbing Oakland Center
Thu 04:20:39 PM 40.1647 -118.4386 60° Northeast 523 602 35,000 195 Climbing Oakland Center
Thu 04:21:40 PM 40.2128 -118.2569 71° East 523 602 35,000  Level Oakland Center
Thu 04:22:41 PM 40.2628 -118.0753 70° East 529 609 35,000  Level Oakland Center
Thu 04:23:41 PM 40.3119 -117.8933 70° East 531 611 35,000  Level Salt Lake Center
Thu 04:24:43 PM 40.3586 -117.7186 71° East 531 611 35,000  Level Salt Lake Center
Thu 04:25:45 PM 40.4136 -117.5128 71° East 533 613 35,000  Level Salt Lake Center
Thu 04:26:47 PM 40.4611 -117.3356 71° East 535 616 35,000  Level Salt Lake Center
Thu 04:27:50 PM 40.5158 -117.1297 71° East 532 612 35,000  Level Salt Lake Center
Thu 04:28:52 PM 40.5628 -116.9506 71° East 533 613 35,000  Level Salt Lake Center
Thu 04:29:54 PM 40.6233 -116.7822 65° Northeast 523 602 35,000  Level Salt Lake Center
Thu 04:30:56 PM 40.6992 -116.5914 62° Northeast 522 601 35,000  Level Salt Lake Center
Thu 04:31:58 PM 40.7617 -116.4278 63° Northeast 521 600 35,000  Level Salt Lake Center
Thu 04:33:00 PM 40.8356 -116.2381 63° Northeast 521 600 35,000  Level Salt Lake Center
Thu 04:34:02 PM 40.8997 -116.0733 63° Northeast 524 603 35,000  Level Salt Lake Center
Thu 04:35:04 PM 40.9708 -115.8808 64° Northeast 521 600 35,000  Level Salt Lake Center
Thu 04:36:06 PM 41.0336 -115.7175 63° Northeast 520 598 35,000  Level Salt Lake Center
Thu 04:37:08 PM 41.1064 -115.5261 63° Northeast 521 600 35,000  Level Salt Lake Center
Thu 04:38:10 PM 41.1678 -115.3617 64° Northeast 520 598 35,000  Level Salt Lake Center
Thu 04:39:12 PM 41.2269 -115.1981 64° Northeast 514 592 35,000  Level Salt Lake Center
Thu 04:40:14 PM 41.2983 -115.0072 63° Northeast 517 595 35,000  Level Salt Lake Center
Thu 04:41:16 PM 41.3617 -114.8350 64° Northeast 514 592 35,000  Level Salt Lake Center
Thu 04:42:18 PM 41.4242 -114.6650 64° Northeast 512 589 35,000  Level Salt Lake Center
Thu 04:43:20 PM 41.4853 -114.4942 64° Northeast 512 589 35,000  Level Salt Lake Center
Thu 04:44:22 PM 41.5475 -114.3236 64° Northeast 513 590 35,000  Level Salt Lake Center
Thu 04:45:24 PM 41.6203 -114.1214 64° Northeast 506 582 35,000  Level Salt Lake Center
Thu 04:46:27 PM 41.6789 -113.9533 65° Northeast 501 577 35,000  Level Salt Lake Center
Thu 04:47:27 PM 41.7389 -113.7858 64° Northeast 500 575 35,000 -49 Level Salt Lake Center
Thu 04:48:29 PM 41.7992 -113.6161 64° Northeast 504 580 34,900  Descending Salt Lake Center
Thu 04:49:31 PM 41.8589 -113.4439 65° Northeast 507 583 35,000 48 Climbing Salt Lake Center
Thu 04:50:33 PM 41.9186 -113.2731 65° Northeast 507 583 35,000  Level Salt Lake Center
Thu 04:51:35 PM 41.9786 -113.1014 65° Northeast 507 583 35,000  Level Salt Lake Center
Thu 04:52:37 PM 42.0483 -112.8967 65° Northeast 502 578 35,000  Level Salt Lake Center
Thu 04:53:39 PM 42.1069 -112.7236 65° Northeast 506 582 35,000  Level Salt Lake Center
Thu 04:54:41 PM 42.1653 -112.5514 65° Northeast 505 581 35,000  Level Salt Lake Center
Thu 04:55:43 PM 42.2236 -112.3769 66° East 509 586 35,000  Level Salt Lake Center
Thu 04:56:45 PM 42.2811 -112.2008 66° East 511 588 35,000  Level Salt Lake Center
Thu 04:57:47 PM 42.3386 -112.0231 66° East 516 594 35,000  Level Salt Lake Center
Thu 04:58:49 PM 42.3972 -111.8436 66° East 520 598 35,000  Level Salt Lake Center
Thu 04:59:51 PM 42.4678 -111.6231 66° East 530 610 35,000  Level Salt Lake Center
Thu 05:00:53 PM 42.5264 -111.4383 67° East 534 615 35,000 48 Level Salt Lake Center
Thu 05:01:55 PM 42.5861 -111.2539 66° East 534 615 35,100  Climbing Salt Lake Center
Thu 05:02:57 PM 42.6436 -111.0672 67° East 536 617 35,000 -48 Descending Salt Lake Center
Thu 05:03:59 PM 42.7097 -110.8544 67° East 534 615 35,000  Level Salt Lake Center
Thu 05:05:01 PM 42.7700 -110.6603 67° East 542 624 35,000  Level Salt Lake Center
Thu 05:06:03 PM 42.8231 -110.4881 67° East 526 605 35,000  Level Salt Lake Center
Thu 05:07:05 PM 42.8856 -110.2836 67° East 524 603 35,000  Level Salt Lake Center
Thu 05:08:07 PM 42.9394 -110.1047 68° East 531 611 35,000  Level Salt Lake Center
Thu 05:09:09 PM 42.9925 -109.9264 68° East 531 611 35,000  Level Salt Lake Center
Thu 05:10:11 PM 43.0531 -109.7239 68° East 536 617 35,000  Level Salt Lake Center
Thu 05:11:13 PM 43.1153 -109.5142 68° East 534 615 35,000 48 Level Salt Lake Center
Thu 05:12:15 PM 43.1686 -109.3339 68° East 534 615 35,100  Climbing Salt Lake Center
Thu 05:13:17 PM 43.2281 -109.1281 68° East 525 604 35,000 -48 Descending Salt Lake Center
Thu 05:14:19 PM 43.2786 -108.9525 68° East 518 596 35,000  Level Salt Lake Center
Thu 05:15:21 PM 43.3372 -108.7472 69° East 517 595 35,000  Level Salt Lake Center
Thu 05:16:23 PM 43.3881 -108.5683 69° East 522 601 35,000 48 Level Salt Lake Center
Thu 05:17:25 PM 43.4392 -108.3875 69° East 527 606 35,100  Climbing Salt Lake Center
Thu 05:18:27 PM 43.4997 -108.1792 68° East 526 605 35,000 -48 Descending Salt Lake Center
Thu 05:19:29 PM 43.5533 -108.0011 67° East 525 604 35,000  Level Salt Lake Center
Thu 05:20:31 PM 43.6142 -107.7944 68° East 523 602 35,000  Level Salt Lake Center
Thu 05:21:33 PM 43.6653 -107.6192 68° East 517 595 35,000  Level Salt Lake Center
Thu 05:22:35 PM 43.7250 -107.4133 68° East 517 595 35,000  Level Salt Lake Center
Thu 05:23:37 PM 43.7747 -107.2381 68° East 523 602 35,000  Level Salt Lake Center
Thu 05:24:39 PM 43.8353 -107.0278 68° East 525 604 35,000  Level Salt Lake Center
Thu 05:25:41 PM 43.8858 -106.8481 69° East 523 602 35,000  Level Salt Lake Center
Thu 05:26:43 PM 43.9458 -106.6381 68° East 524 603 35,000  Level Salt Lake Center
Thu 05:27:45 PM 43.9958 -106.4572 69° East 524 603 35,000  Level Salt Lake Center
Thu 05:28:47 PM 44.0500 -106.2450 70° East 521 600 35,000  Level Salt Lake Center
Thu 05:29:49 PM 44.0956 -106.0608 71° East 523 602 35,000  Level Salt Lake Center
Thu 05:30:51 PM 44.1497 -105.8450 71° East 525 604 35,000 48 Level Salt Lake Center
Thu 05:31:53 PM 44.1953 -105.6594 71° East 527 606 35,100  Climbing Salt Lake Center
Thu 05:32:55 PM 44.2403 -105.4758 71° East 525 604 35,000 -41 Descending Salt Lake Center
Thu 05:34:18 PM 44.3053 -105.1994 72° East 523 602 35,000  Level Denver Center
Thu 05:35:20 PM 44.3558 -104.9875 71° East 519 597 35,000  Level Denver Center
Thu 05:36:22 PM 44.3992 -104.8061 71° East 517 595 35,000  Level Denver Center
Thu 05:37:24 PM 44.4417 -104.6256 72° East 514 592 35,000  Level Denver Center
Thu 05:38:26 PM 44.4914 -104.4150 72° East 512 589 35,000  Level Denver Center
Thu 05:39:28 PM 44.5331 -104.2317 72° East 514 592 35,000  Level Denver Center
Thu 05:40:30 PM 44.5819 -104.0206 72° East 512 589 35,000  Level Denver Center
Thu 05:41:32 PM 44.6236 -103.8386 72° East 511 588 35,000  Level Denver Center
Thu 05:42:34 PM 44.6706 -103.6272 73° East 509 586 35,000  Level Denver Center
Thu 05:43:36 PM 44.7128 -103.4369 73° East 506 582 35,000  Level Denver Center
Thu 05:44:38 PM 44.7539 -103.2483 73° East 505 581 35,000  Level Denver Center
Thu 05:45:40 PM 44.7956 -103.0597 73° East 505 581 35,000  Level Denver Center
Thu 05:46:43 PM 44.8375 -102.8692 73° East 508 585 35,000  Level Denver Center
Thu 05:47:45 PM 44.8772 -102.6781 74° East 508 585 35,000  Level Denver Center
Thu 05:48:17 PM 44.9022 -102.5628 73° East 510 587 35,000  Level Minneapolis Center
Thu 05:49:19 PM 44.9428 -102.3733 73° East 508 585 35,000  Level Minneapolis Center
Thu 05:50:21 PM 44.9831 -102.1831 73° East 507 583 35,000  Level Minneapolis Center
Thu 05:51:24 PM 45.0306 -101.9539 74° East 507 583 35,000  Level Minneapolis Center
Thu 05:52:26 PM 45.0650 -101.7636 76° East 503 579 35,000  Level Minneapolis Center
Thu 05:53:28 PM 45.0697 -101.5714 88° East 494 568 35,000  Level Minneapolis Center
Thu 05:54:30 PM 45.0564 -101.3825 96° East 487 560 35,000  Level Minneapolis Center
Thu 05:55:32 PM 45.0439 -101.1933 95° East 485 558 35,000  Level Minneapolis Center
Thu 05:56:34 PM 45.0303 -101.0044 96° East 484 557 35,000  Level Minneapolis Center
Thu 05:57:36 PM 45.0144 -100.7786 96° East 483 556 35,000  Level Minneapolis Center
Thu 05:58:38 PM 45.0008 -100.5892 96° East 484 557 35,000  Level Minneapolis Center
Thu 05:59:40 PM 44.9869 -100.3997 96° East 486 559 35,000  Level Minneapolis Center
Thu 06:00:42 PM 44.9717 -100.2128 97° East 485 558 35,000  Level Minneapolis Center
Thu 06:01:45 PM 44.9533 -99.9897 97° East 488 562 35,000  Level Minneapolis Center
Thu 06:02:47 PM 44.9394 -99.8017 96° East 496 571 35,000  Level Minneapolis Center
Thu 06:03:49 PM 44.9261 -99.6147 96° East 490 564 35,000  Level Minneapolis Center
Thu 06:04:51 PM 44.9106 -99.4253 97° East 489 563 35,000  Level Minneapolis Center
Thu 06:05:53 PM 44.8942 -99.2372 97° East 487 560 35,000  Level Minneapolis Center
Thu 06:06:55 PM 44.8750 -99.0117 97° East 485 558 35,000  Level Minneapolis Center
Thu 06:07:57 PM 44.8583 -98.8231 97° East 486 559 35,000  Level Minneapolis Center
Thu 06:08:59 PM 44.8444 -98.6356 96° East 483 556 35,000 -48 Level Minneapolis Center
Thu 06:10:01 PM 44.9017 -98.4594 65° Northeast 495 570 34,900 -532 Descending Minneapolis Center
Thu 06:11:03 PM 44.9789 -98.2817 58° Northeast 494 568 33,900 -912 Descending Minneapolis Center
Thu 06:12:06 PM 45.0503 -98.1178 58° Northeast 492 566 33,000 -432 Descending Minneapolis Center
Thu 06:13:08 PM 45.1233 -97.9503 58° Northeast 498 573 33,000  Level Minneapolis Center
Thu 06:14:10 PM 45.1939 -97.7839 59° Northeast 494 568 33,000  Level Minneapolis Center
Thu 06:15:12 PM 45.2778 -97.5842 59° Northeast 492 566 33,000  Level Minneapolis Center
Thu 06:16:14 PM 45.3486 -97.4183 59° Northeast 491 565 33,000  Level Minneapolis Center
Thu 06:17:16 PM 45.4525 -97.2928 40° Northeast 499 574 33,000  Level Minneapolis Center
Thu 06:18:18 PM 45.5831 -97.2575 11° North 482 555 33,000  Level Minneapolis Center
Thu 06:19:22 PM 45.7122 -97.2153 13° North 479 551 33,000  Level Minneapolis Center
Thu 06:20:24 PM 45.8414 -97.0717 38° Northeast 490 564 33,000  Level Minneapolis Center
Thu 06:21:26 PM 45.8822 -96.8897 72° East 483 556 33,000  Level Minneapolis Center
Thu 06:22:29 PM 45.8786 -96.6914 91° East 493 567 33,000  Level Minneapolis Center
Thu 06:23:31 PM 45.8731 -96.4964 92° East 490 564 33,000  Level Minneapolis Center
Thu 06:24:33 PM 45.8675 -96.3033 92° East 487 560 33,000  Level Minneapolis Center
Thu 06:25:35 PM 45.8608 -96.1178 93° East 477 549 33,000  Level Minneapolis Center
Thu 06:26:37 PM 45.8544 -95.9353 93° East 466 536 33,000 48 Level Minneapolis Center
Thu 06:27:39 PM 45.8467 -95.7094 93° East 468 539 33,100  Climbing Minneapolis Center
Thu 06:28:41 PM 45.8397 -95.5236 93° East 468 539 33,000 -339 Descending Minneapolis Center
Thu 06:29:43 PM 45.8328 -95.3369 93° East 468 539 32,400 -726 Descending Minneapolis Center
Thu 06:30:45 PM 45.8250 -95.1539 93° East 464 534 31,500 -1,403 Descending Minneapolis Center
Thu 06:31:47 PM 45.8178 -94.9772 93° East 455 524 29,500 -1,872 Descending Minneapolis Center
Thu 06:32:50 PM 45.8097 -94.8053 94° East 443 510 27,600 -2,592 Descending Minneapolis Center
Thu 06:33:52 PM 45.7936 -94.6039 96° East 431 496 24,100 -3,387 Descending Minneapolis Center
Thu 06:34:54 PM 45.7517 -94.4361 110° East 443 510 20,600 -2,758 Descending Minneapolis Center
Thu 06:35:56 PM 45.7078 -94.2742 111° Southeast 443 510 18,400 -2,177 Descending Minneapolis Center
Thu 06:36:58 PM 45.6697 -94.1133 109° East 434 499 16,100 -2,129 Descending Minneapolis Center
Thu 06:38:00 PM 45.6322 -93.9608 109° East 409 471 14,000 -2,274 Descending Minneapolis Center
Thu 06:39:02 PM 45.5886 -93.7897 110° East 386 444 11,400 -1,452 Descending Minneapolis Center
Thu 06:40:04 PM 45.5542 -93.6528 110° East 369 425 11,000 -290 Descending Minneapolis Center
Thu 06:41:06 PM 45.4967 -93.5636 133° Southeast 310 357 10,800 -823 Descending Minneapolis Center
Thu 06:42:08 PM 45.4172 -93.5419 169° South 290 334 9,300 -1,016 Descending Minneapolis Center
Thu 06:43:10 PM 45.3408 -93.5203 169° South 281 323 8,700 -1,008 Descending Minneapolis Center
Thu 06:44:13 PM 45.2681 -93.4992 168° South 270 311 7,200 -1,248 Descending Minneapolis Center
Thu 06:45:15 PM 45.1828 -93.4750 169° South 261 300 6,100 -1,258 Descending Minneapolis Center
Thu 06:46:17 PM 45.1150 -93.4447 163° South 257 296 4,600 -1,016 Descending Minneapolis Center
Thu 06:47:19 PM 45.0567 -93.4108 158° South 230 265 4,000 -290 Descending Minneapolis Center
Thu 06:48:21 PM 45.0064 -93.3842 159° South 198 228 4,000  Level Minneapolis Center

Login

Don't have an account? Register now (free) for customized features, flight alerts, and more!